sensor_id;sensor_type;location;lat;lon;timestamp;pressure;altitude;pressure_sealevel;temperature;humidity
35910;BME280;22004;49.120;-0.200;2022-10-16T00:01:34;100836.69;;;14.18;100.00
35910;BME280;22004;49.120;-0.200;2022-10-16T00:04:00;100835.53;;;14.22;100.00
35910;BME280;22004;49.120;-0.200;2022-10-16T00:06:31;100834.94;;;14.31;100.00
35910;BME280;22004;49.120;-0.200;2022-10-16T00:08:56;100833.00;;;14.34;100.00
35910;BME280;22004;49.120;-0.200;2022-10-16T00:11:30;100830.47;;;14.18;100.00
35910;BME280;22004;49.120;-0.200;2022-10-16T00:13:59;100837.31;;;14.36;100.00
35910;BME280;22004;49.120;-0.200;2022-10-16T00:16:26;100841.97;;;14.32;100.00
35910;BME280;22004;49.120;-0.200;2022-10-16T00:18:52;100835.31;;;14.25;100.00
35910;BME280;22004;49.120;-0.200;2022-10-16T00:21:21;100827.00;;;14.30;100.00
35910;BME280;22004;49.120;-0.200;2022-10-16T00:23:50;100828.56;;;14.20;100.00
35910;BME280;22004;49.120;-0.200;2022-10-16T00:26:16;100821.72;;;14.15;100.00
35910;BME280;22004;49.120;-0.200;2022-10-16T00:28:44;100833.03;;;14.19;100.00
35910;BME280;22004;49.120;-0.200;2022-10-16T00:31:11;100830.22;;;13.93;100.00
35910;BME280;22004;49.120;-0.200;2022-10-16T00:33:38;100828.97;;;14.13;100.00
35910;BME280;22004;49.120;-0.200;2022-10-16T00:36:05;100829.91;;;14.12;100.00
35910;BME280;22004;49.120;-0.200;2022-10-16T00:38:30;100836.78;;;13.88;100.00
35910;BME280;22004;49.120;-0.200;2022-10-16T00:40:56;100834.81;;;13.91;100.00
35910;BME280;22004;49.120;-0.200;2022-10-16T00:46:02;100833.66;;;13.81;100.00
35910;BME280;22004;49.120;-0.200;2022-10-16T00:48:30;100839.00;;;13.95;100.00
35910;BME280;22004;49.120;-0.200;2022-10-16T00:50:56;100842.69;;;14.07;100.00
35910;BME280;22004;49.120;-0.200;2022-10-16T00:53:23;100845.66;;;13.88;100.00
35910;BME280;22004;49.120;-0.200;2022-10-16T00:55:50;100842.69;;;13.78;100.00
35910;BME280;22004;49.120;-0.200;2022-10-16T00:58:16;100848.13;;;13.91;100.00
35910;BME280;22004;49.120;-0.200;2022-10-16T01:00:41;100847.25;;;13.91;100.00
35910;BME280;22004;49.120;-0.200;2022-10-16T01:06:23;100835.38;;;13.68;100.00
35910;BME280;22004;49.120;-0.200;2022-10-16T01:11:17;100847.00;;;14.10;100.00
35910;BME280;22004;49.120;-0.200;2022-10-16T01:13:53;100842.50;;;13.96;100.00
35910;BME280;22004;49.120;-0.200;2022-10-16T01:16:29;100842.06;;;13.75;100.00
35910;BME280;22004;49.120;-0.200;2022-10-16T01:19:15;100839.72;;;13.54;100.00
35910;BME280;22004;49.120;-0.200;2022-10-16T01:21:44;100844.69;;;13.60;100.00
35910;BME280;22004;49.120;-0.200;2022-10-16T01:27:15;100848.22;;;13.46;100.00
35910;BME280;22004;49.120;-0.200;2022-10-16T01:32:28;100854.75;;;13.41;100.00
35910;BME280;22004;49.120;-0.200;2022-10-16T01:35:18;100855.38;;;13.30;100.00
35910;BME280;22004;49.120;-0.200;2022-10-16T01:40:34;100846.78;;;13.55;100.00
35910;BME280;22004;49.120;-0.200;2022-10-16T01:43:14;100846.00;;;13.39;100.00
35910;BME280;22004;49.120;-0.200;2022-10-16T01:45:41;100844.13;;;13.55;100.00
35910;BME280;22004;49.120;-0.200;2022-10-16T01:48:12;100848.50;;;13.56;100.00
35910;BME280;22004;49.120;-0.200;2022-10-16T01:50:39;100846.53;;;13.60;100.00
35910;BME280;22004;49.120;-0.200;2022-10-16T01:53:08;100849.34;;;13.57;100.00
35910;BME280;22004;49.120;-0.200;2022-10-16T01:55:38;100850.19;;;13.43;100.00
35910;BME280;22004;49.120;-0.200;2022-10-16T01:58:07;100843.25;;;13.69;100.00
35910;BME280;22004;49.120;-0.200;2022-10-16T02:00:37;100853.09;;;13.69;100.00
35910;BME280;22004;49.120;-0.200;2022-10-16T02:03:04;100860.34;;;13.67;100.00
35910;BME280;22004;49.120;-0.200;2022-10-16T02:08:08;100867.72;;;13.76;100.00
35910;BME280;22004;49.120;-0.200;2022-10-16T02:10:35;100877.84;;;13.71;100.00
35910;BME280;22004;49.120;-0.200;2022-10-16T02:13:09;100879.47;;;13.88;100.00
35910;BME280;22004;49.120;-0.200;2022-10-16T02:15:35;100877.66;;;13.74;100.00
35910;BME280;22004;49.120;-0.200;2022-10-16T02:18:02;100883.06;;;13.87;100.00
35910;BME280;22004;49.120;-0.200;2022-10-16T02:20:33;100883.19;;;13.71;100.00
35910;BME280;22004;49.120;-0.200;2022-10-16T02:23:01;100886.41;;;13.90;100.00
35910;BME280;22004;49.120;-0.200;2022-10-16T02:25:30;100879.25;;;13.91;100.00
35910;BME280;22004;49.120;-0.200;2022-10-16T02:28:03;100886.41;;;13.90;100.00
35910;BME280;22004;49.120;-0.200;2022-10-16T02:30:39;100892.78;;;13.59;100.00
35910;BME280;22004;49.120;-0.200;2022-10-16T02:33:10;100889.66;;;13.81;100.00
35910;BME280;22004;49.120;-0.200;2022-10-16T02:35:38;100899.78;;;13.45;100.00
35910;BME280;22004;49.120;-0.200;2022-10-16T02:38:06;100906.66;;;13.34;100.00
35910;BME280;22004;49.120;-0.200;2022-10-16T02:40:32;100902.41;;;13.76;100.00
35910;BME280;22004;49.120;-0.200;2022-10-16T02:42:58;100901.13;;;13.38;100.00
35910;BME280;22004;49.120;-0.200;2022-10-16T02:45:24;100901.84;;;13.71;100.00
35910;BME280;22004;49.120;-0.200;2022-10-16T02:47:49;100902.03;;;13.82;100.00
35910;BME280;22004;49.120;-0.200;2022-10-16T02:50:15;100905.88;;;13.92;100.00
35910;BME280;22004;49.120;-0.200;2022-10-16T02:52:40;100903.22;;;13.47;100.00
35910;BME280;22004;49.120;-0.200;2022-10-16T02:55:06;100908.22;;;13.82;100.00
35910;BME280;22004;49.120;-0.200;2022-10-16T02:57:32;100906.03;;;13.75;100.00
35910;BME280;22004;49.120;-0.200;2022-10-16T02:59:57;100908.53;;;13.92;100.00
35910;BME280;22004;49.120;-0.200;2022-10-16T03:02:23;100900.78;;;13.88;100.00
35910;BME280;22004;49.120;-0.200;2022-10-16T03:04:48;100910.72;;;13.86;100.00
35910;BME280;22004;49.120;-0.200;2022-10-16T03:07:14;100899.66;;;13.77;100.00
35910;BME280;22004;49.120;-0.200;2022-10-16T03:09:39;100902.13;;;13.95;100.00
35910;BME280;22004;49.120;-0.200;2022-10-16T03:12:05;100913.84;;;13.92;100.00
35910;BME280;22004;49.120;-0.200;2022-10-16T03:14:30;100908.41;;;13.79;100.00
35910;BME280;22004;49.120;-0.200;2022-10-16T03:16:55;100916.13;;;13.84;100.00
35910;BME280;22004;49.120;-0.200;2022-10-16T03:19:21;100907.91;;;13.73;100.00
35910;BME280;22004;49.120;-0.200;2022-10-16T03:21:46;100912.22;;;13.75;100.00
35910;BME280;22004;49.120;-0.200;2022-10-16T03:24:11;100910.88;;;13.82;100.00
35910;BME280;22004;49.120;-0.200;2022-10-16T03:26:37;100918.13;;;13.80;100.00
35910;BME280;22004;49.120;-0.200;2022-10-16T03:29:03;100917.41;;;13.48;100.00
35910;BME280;22004;49.120;-0.200;2022-10-16T03:31:29;100917.59;;;13.59;100.00
35910;BME280;22004;49.120;-0.200;2022-10-16T03:33:55;100919.03;;;13.51;100.00
35910;BME280;22004;49.120;-0.200;2022-10-16T03:36:20;100915.63;;;13.63;100.00
35910;BME280;22004;49.120;-0.200;2022-10-16T03:38:45;100922.59;;;13.66;100.00
35910;BME280;22004;49.120;-0.200;2022-10-16T03:41:11;100913.72;;;13.65;100.00
35910;BME280;22004;49.120;-0.200;2022-10-16T03:43:36;100915.19;;;13.71;100.00
35910;BME280;22004;49.120;-0.200;2022-10-16T03:46:01;100915.53;;;13.64;100.00
35910;BME280;22004;49.120;-0.200;2022-10-16T03:48:27;100919.28;;;13.76;100.00
35910;BME280;22004;49.120;-0.200;2022-10-16T03:50:52;100920.19;;;13.61;100.00
35910;BME280;22004;49.120;-0.200;2022-10-16T03:53:18;100915.03;;;13.58;100.00
35910;BME280;22004;49.120;-0.200;2022-10-16T03:55:44;100917.72;;;13.58;100.00
35910;BME280;22004;49.120;-0.200;2022-10-16T03:58:10;100918.69;;;13.41;100.00
35910;BME280;22004;49.120;-0.200;2022-10-16T04:00:40;100913.16;;;13.60;100.00
35910;BME280;22004;49.120;-0.200;2022-10-16T04:03:05;100927.28;;;13.46;100.00
35910;BME280;22004;49.120;-0.200;2022-10-16T04:05:30;100918.69;;;13.41;100.00
35910;BME280;22004;49.120;-0.200;2022-10-16T04:07:56;100925.00;;;13.54;100.00
35910;BME280;22004;49.120;-0.200;2022-10-16T04:10:21;100932.53;;;13.47;100.00
35910;BME280;22004;49.120;-0.200;2022-10-16T04:12:46;100929.81;;;13.63;100.00
35910;BME280;22004;49.120;-0.200;2022-10-16T04:15:12;100933.16;;;13.37;100.00
35910;BME280;22004;49.120;-0.200;2022-10-16T04:17:37;100930.09;;;13.73;100.00
35910;BME280;22004;49.120;-0.200;2022-10-16T04:20:03;100929.63;;;13.81;100.00
35910;BME280;22004;49.120;-0.200;2022-10-16T04:22:28;100945.19;;;13.89;100.00
35910;BME280;22004;49.120;-0.200;2022-10-16T04:24:53;100939.25;;;13.84;100.00
35910;BME280;22004;49.120;-0.200;2022-10-16T04:27:19;100942.31;;;13.77;100.00
35910;BME280;22004;49.120;-0.200;2022-10-16T04:29:44;100936.50;;;13.85;100.00
35910;BME280;22004;49.120;-0.200;2022-10-16T04:32:09;100942.41;;;13.90;100.00
35910;BME280;22004;49.120;-0.200;2022-10-16T04:34:35;100947.56;;;13.79;100.00
35910;BME280;22004;49.120;-0.200;2022-10-16T04:37:00;100939.38;;;13.82;100.00
35910;BME280;22004;49.120;-0.200;2022-10-16T04:39:26;100930.41;;;13.83;100.00
35910;BME280;22004;49.120;-0.200;2022-10-16T04:41:51;100933.84;;;13.85;100.00
35910;BME280;22004;49.120;-0.200;2022-10-16T04:44:16;100927.47;;;13.88;100.00
35910;BME280;22004;49.120;-0.200;2022-10-16T04:46:42;100928.88;;;13.93;100.00
35910;BME280;22004;49.120;-0.200;2022-10-16T04:49:07;100940.34;;;13.95;100.00
35910;BME280;22004;49.120;-0.200;2022-10-16T04:51:33;100938.81;;;13.91;100.00
35910;BME280;22004;49.120;-0.200;2022-10-16T04:53:58;100943.34;;;13.89;100.00
35910;BME280;22004;49.120;-0.200;2022-10-16T04:56:23;100950.31;;;13.92;100.00
35910;BME280;22004;49.120;-0.200;2022-10-16T04:58:49;100954.19;;;13.72;100.00
35910;BME280;22004;49.120;-0.200;2022-10-16T05:01:15;100960.97;;;13.77;100.00
35910;BME280;22004;49.120;-0.200;2022-10-16T05:03:40;100971.56;;;13.79;100.00
35910;BME280;22004;49.120;-0.200;2022-10-16T05:06:06;100975.91;;;13.80;100.00
35910;BME280;22004;49.120;-0.200;2022-10-16T05:08:32;100973.50;;;13.61;100.00
35910;BME280;22004;49.120;-0.200;2022-10-16T05:10:57;100983.34;;;13.75;100.00
35910;BME280;22004;49.120;-0.200;2022-10-16T05:13:23;100986.59;;;13.50;100.00
35910;BME280;22004;49.120;-0.200;2022-10-16T05:15:49;100986.16;;;13.57;100.00
35910;BME280;22004;49.120;-0.200;2022-10-16T05:18:15;100996.84;;;13.72;100.00
35910;BME280;22004;49.120;-0.200;2022-10-16T05:20:41;100993.16;;;13.44;100.00
35910;BME280;22004;49.120;-0.200;2022-10-16T05:23:06;100991.50;;;13.72;100.00
35910;BME280;22004;49.120;-0.200;2022-10-16T05:25:32;100984.97;;;13.77;100.00
35910;BME280;22004;49.120;-0.200;2022-10-16T05:27:57;100987.91;;;13.73;100.00
35910;BME280;22004;49.120;-0.200;2022-10-16T05:30:23;100983.84;;;13.81;100.00
35910;BME280;22004;49.120;-0.200;2022-10-16T05:32:49;100981.53;;;13.75;100.00
35910;BME280;22004;49.120;-0.200;2022-10-16T05:35:16;100978.28;;;13.70;100.00
35910;BME280;22004;49.120;-0.200;2022-10-16T05:37:42;100981.34;;;13.78;100.00
35910;BME280;22004;49.120;-0.200;2022-10-16T05:40:08;100971.34;;;13.82;100.00
35910;BME280;22004;49.120;-0.200;2022-10-16T05:42:33;100974.97;;;13.81;100.00
35910;BME280;22004;49.120;-0.200;2022-10-16T05:44:58;100966.75;;;13.70;100.00
35910;BME280;22004;49.120;-0.200;2022-10-16T05:47:24;100971.25;;;13.84;100.00
35910;BME280;22004;49.120;-0.200;2022-10-16T05:49:49;100982.31;;;13.77;100.00
35910;BME280;22004;49.120;-0.200;2022-10-16T05:52:15;100977.44;;;13.70;100.00
35910;BME280;22004;49.120;-0.200;2022-10-16T05:54:40;100976.88;;;13.79;100.00
35910;BME280;22004;49.120;-0.200;2022-10-16T05:57:05;100975.91;;;13.80;100.00
35910;BME280;22004;49.120;-0.200;2022-10-16T05:59:31;100986.00;;;13.75;100.00
35910;BME280;22004;49.120;-0.200;2022-10-16T06:01:57;100987.72;;;13.76;100.00
35910;BME280;22004;49.120;-0.200;2022-10-16T06:04:22;100989.44;;;13.77;100.00
35910;BME280;22004;49.120;-0.200;2022-10-16T06:06:48;100991.88;;;13.66;100.00
35910;BME280;22004;49.120;-0.200;2022-10-16T06:09:13;100997.34;;;13.78;100.00
35910;BME280;22004;49.120;-0.200;2022-10-16T06:11:38;101005.63;;;13.74;100.00
35910;BME280;22004;49.120;-0.200;2022-10-16T06:14:04;100996.50;;;13.78;100.00
35910;BME280;22004;49.120;-0.200;2022-10-16T06:16:33;101007.06;;;13.79;100.00
35910;BME280;22004;49.120;-0.200;2022-10-16T06:18:59;101000.97;;;13.77;100.00
35910;BME280;22004;49.120;-0.200;2022-10-16T06:21:27;101011.63;;;13.77;100.00
35910;BME280;22004;49.120;-0.200;2022-10-16T06:23:53;101005.34;;;13.78;100.00
35910;BME280;22004;49.120;-0.200;2022-10-16T06:26:21;101015.91;;;13.80;100.00
35910;BME280;22004;49.120;-0.200;2022-10-16T06:28:47;101017.03;;;13.76;100.00
35910;BME280;22004;49.120;-0.200;2022-10-16T06:31:13;101013.44;;;13.77;100.00
35910;BME280;22004;49.120;-0.200;2022-10-16T06:33:38;101015.16;;;13.78;100.00
35910;BME280;22004;49.120;-0.200;2022-10-16T06:36:15;101012.69;;;13.75;100.00
35910;BME280;22004;49.120;-0.200;2022-10-16T06:38:42;101017.03;;;13.76;100.00
35910;BME280;22004;49.120;-0.200;2022-10-16T06:41:11;101017.13;;;13.74;100.00
35910;BME280;22004;49.120;-0.200;2022-10-16T06:43:36;101034.16;;;13.72;100.00
35910;BME280;22004;49.120;-0.200;2022-10-16T06:46:04;101034.16;;;13.72;100.00
35910;BME280;22004;49.120;-0.200;2022-10-16T06:48:30;101041.22;;;13.73;100.00
35910;BME280;22004;49.120;-0.200;2022-10-16T06:50:56;101043.78;;;13.74;100.00
35910;BME280;22004;49.120;-0.200;2022-10-16T06:53:22;101044.66;;;13.75;100.00
35910;BME280;22004;49.120;-0.200;2022-10-16T06:55:48;101042.34;;;13.69;100.00
35910;BME280;22004;49.120;-0.200;2022-10-16T06:58:13;101044.72;;;13.43;100.00
35910;BME280;22004;49.120;-0.200;2022-10-16T07:00:39;101034.97;;;13.26;100.00
35910;BME280;22004;49.120;-0.200;2022-10-16T07:03:04;101036.41;;;13.63;100.00
35910;BME280;22004;49.120;-0.200;2022-10-16T07:05:29;101048.84;;;13.17;100.00
35910;BME280;22004;49.120;-0.200;2022-10-16T07:07:55;101057.00;;;12.48;100.00
35910;BME280;22004;49.120;-0.200;2022-10-16T07:10:20;101054.13;;;12.69;100.00
35910;BME280;22004;49.120;-0.200;2022-10-16T07:12:49;101055.44;;;12.44;100.00
35910;BME280;22004;49.120;-0.200;2022-10-16T07:15:14;101052.16;;;12.72;100.00
35910;BME280;22004;49.120;-0.200;2022-10-16T07:17:40;101051.59;;;13.47;100.00
35910;BME280;22004;49.120;-0.200;2022-10-16T07:20:05;101048.28;;;13.74;100.00
35910;BME280;22004;49.120;-0.200;2022-10-16T07:22:31;101054.47;;;13.58;100.00
35910;BME280;22004;49.120;-0.200;2022-10-16T07:24:56;101051.31;;;13.52;100.00
35910;BME280;22004;49.120;-0.200;2022-10-16T07:27:22;101049.34;;;13.55;100.00
35910;BME280;22004;49.120;-0.200;2022-10-16T07:29:49;101050.91;;;13.11;100.00
35910;BME280;22004;49.120;-0.200;2022-10-16T07:32:14;101044.66;;;12.63;100.00
35910;BME280;22004;49.120;-0.200;2022-10-16T07:34:40;101052.44;;;13.47;100.00
35910;BME280;22004;49.120;-0.200;2022-10-16T07:37:05;101050.53;;;13.18;100.00
35910;BME280;22004;49.120;-0.200;2022-10-16T07:39:30;101047.28;;;13.28;100.00
35910;BME280;22004;49.120;-0.200;2022-10-16T07:41:56;101047.19;;;13.92;100.00
35910;BME280;22004;49.120;-0.200;2022-10-16T07:44:21;101057.94;;;13.60;100.00
35910;BME280;22004;49.120;-0.200;2022-10-16T07:46:46;101061.28;;;13.16;100.00
35910;BME280;22004;49.120;-0.200;2022-10-16T07:49:12;101059.16;;;13.39;100.00
35910;BME280;22004;49.120;-0.200;2022-10-16T07:51:37;101059.91;;;13.09;100.00
35910;BME280;22004;49.120;-0.200;2022-10-16T07:54:04;101057.56;;;12.71;100.00
35910;BME280;22004;49.120;-0.200;2022-10-16T07:56:31;101056.16;;;12.63;100.00
35910;BME280;22004;49.120;-0.200;2022-10-16T07:58:57;101050.53;;;12.86;100.00
35910;BME280;22004;49.120;-0.200;2022-10-16T08:01:22;101058.97;;;13.58;100.00
35910;BME280;22004;49.120;-0.200;2022-10-16T08:03:49;101055.09;;;13.63;100.00
35910;BME280;22004;49.120;-0.200;2022-10-16T08:06:16;101054.69;;;14.45;100.00
35910;BME280;22004;49.120;-0.200;2022-10-16T08:08:42;101047.13;;;15.51;100.00
35910;BME280;22004;49.120;-0.200;2022-10-16T08:11:08;101064.34;;;15.47;100.00
35910;BME280;22004;49.120;-0.200;2022-10-16T08:13:33;101063.66;;;16.11;100.00
35910;BME280;22004;49.120;-0.200;2022-10-16T08:15:59;101071.50;;;15.05;100.00
35910;BME280;22004;49.120;-0.200;2022-10-16T08:18:25;101075.25;;;14.14;100.00
35910;BME280;22004;49.120;-0.200;2022-10-16T08:20:58;101077.63;;;14.19;100.00
35910;BME280;22004;49.120;-0.200;2022-10-16T08:23:24;101081.00;;;14.22;100.00
35910;BME280;22004;49.120;-0.200;2022-10-16T08:25:51;101084.06;;;14.59;100.00
35910;BME280;22004;49.120;-0.200;2022-10-16T08:28:16;101087.59;;;14.01;100.00
35910;BME280;22004;49.120;-0.200;2022-10-16T08:30:42;101090.72;;;14.38;100.00
35910;BME280;22004;49.120;-0.200;2022-10-16T08:33:07;101101.81;;;14.60;100.00
35910;BME280;22004;49.120;-0.200;2022-10-16T08:35:33;101114.94;;;14.04;100.00
35910;BME280;22004;49.120;-0.200;2022-10-16T08:37:58;101119.59;;;14.31;100.00
35910;BME280;22004;49.120;-0.200;2022-10-16T08:40:27;101115.56;;;14.97;100.00
35910;BME280;22004;49.120;-0.200;2022-10-16T08:43:29;101130.47;;;14.73;100.00
35910;BME280;22004;49.120;-0.200;2022-10-16T08:48:57;101130.41;;;14.58;100.00
35910;BME280;22004;49.120;-0.200;2022-10-16T08:51:28;101140.88;;;14.47;100.00
35910;BME280;22004;49.120;-0.200;2022-10-16T08:56:20;101132.63;;;14.21;100.00
35910;BME280;22004;49.120;-0.200;2022-10-16T08:58:46;101137.19;;;14.19;100.00
35910;BME280;22004;49.120;-0.200;2022-10-16T09:01:15;101138.47;;;14.28;100.00
35910;BME280;22004;49.120;-0.200;2022-10-16T09:12:22;101129.38;;;14.61;100.00
35910;BME280;22004;49.120;-0.200;2022-10-16T09:17:51;101122.06;;;14.20;100.00
35910;BME280;22004;49.120;-0.200;2022-10-16T09:22:48;101130.72;;;14.23;100.00
35910;BME280;22004;49.120;-0.200;2022-10-16T09:25:16;101133.44;;;14.38;100.00
35910;BME280;22004;49.120;-0.200;2022-10-16T09:27:44;101121.84;;;14.53;100.00
35910;BME280;22004;49.120;-0.200;2022-10-16T09:30:13;101123.19;;;14.60;100.00
35910;BME280;22004;49.120;-0.200;2022-10-16T09:32:40;101123.19;;;14.60;100.00
35910;BME280;22004;49.120;-0.200;2022-10-16T09:35:15;101132.94;;;14.76;100.00
35910;BME280;22004;49.120;-0.200;2022-10-16T09:37:42;101116.53;;;14.82;100.00
35910;BME280;22004;49.120;-0.200;2022-10-16T09:40:13;101117.66;;;15.07;100.00
35910;BME280;22004;49.120;-0.200;2022-10-16T09:42:38;101118.34;;;15.10;100.00
35910;BME280;22004;49.120;-0.200;2022-10-16T09:45:04;101122.53;;;15.14;100.00
35910;BME280;22004;49.120;-0.200;2022-10-16T09:47:31;101124.41;;;15.83;100.00
35910;BME280;22004;49.120;-0.200;2022-10-16T09:50:20;101135.84;;;15.71;100.00
35910;BME280;22004;49.120;-0.200;2022-10-16T09:52:46;101114.56;;;15.42;100.00
35910;BME280;22004;49.120;-0.200;2022-10-16T09:55:17;101111.41;;;15.49;100.00
35910;BME280;22004;49.120;-0.200;2022-10-16T09:57:53;101110.72;;;15.46;100.00
35910;BME280;22004;49.120;-0.200;2022-10-16T10:00:19;101106.22;;;15.46;100.00
35910;BME280;22004;49.120;-0.200;2022-10-16T10:02:45;101112.78;;;15.70;100.00
35910;BME280;22004;49.120;-0.200;2022-10-16T10:05:20;101105.16;;;15.91;100.00
35910;BME280;22004;49.120;-0.200;2022-10-16T10:07:54;101107.66;;;15.79;100.00
35910;BME280;22004;49.120;-0.200;2022-10-16T10:10:25;101108.94;;;16.01;100.00
35910;BME280;22004;49.120;-0.200;2022-10-16T10:12:51;101104.09;;;15.93;100.00
35910;BME280;22004;49.120;-0.200;2022-10-16T10:15:17;101088.41;;;16.27;100.00
35910;BME280;22004;49.120;-0.200;2022-10-16T10:17:53;101077.84;;;16.64;100.00
35910;BME280;22004;49.120;-0.200;2022-10-16T10:22:49;101083.88;;;15.75;100.00
35910;BME280;22004;49.120;-0.200;2022-10-16T10:28:23;101090.75;;;15.79;100.00
35910;BME280;22004;49.120;-0.200;2022-10-16T10:33:43;101076.31;;;15.54;100.00
35910;BME280;22004;49.120;-0.200;2022-10-16T10:55:44;101077.00;;;15.58;100.00
35910;BME280;22004;49.120;-0.200;2022-10-16T11:06:18;101050.06;;;15.33;100.00
35910;BME280;22004;49.120;-0.200;2022-10-16T11:09:18;101045.38;;;15.37;100.00
35910;BME280;22004;49.120;-0.200;2022-10-16T11:11:52;101045.28;;;15.39;100.00
35910;BME280;22004;49.120;-0.200;2022-10-16T11:14:25;101041.69;;;15.53;100.00
35910;BME280;22004;49.120;-0.200;2022-10-16T11:16:59;101036.53;;;15.49;100.00
35910;BME280;22004;49.120;-0.200;2022-10-16T11:19:37;101038.91;;;15.54;100.00
35910;BME280;22004;49.120;-0.200;2022-10-16T11:27:17;101029.47;;;15.48;100.00
35910;BME280;22004;49.120;-0.200;2022-10-16T11:29:50;101037.16;;;15.53;100.00
35910;BME280;22004;49.120;-0.200;2022-10-16T11:32:29;101046.53;;;15.60;100.00
35910;BME280;22004;49.120;-0.200;2022-10-16T11:35:01;101046.78;;;15.43;100.00
35910;BME280;22004;49.120;-0.200;2022-10-16T11:37:33;101044.94;;;15.43;100.00
35910;BME280;22004;49.120;-0.200;2022-10-16T11:40:19;101046.56;;;15.46;100.00
35910;BME280;22004;49.120;-0.200;2022-10-16T11:42:51;101054.38;;;15.49;100.00
35910;BME280;22004;49.120;-0.200;2022-10-16T11:45:51;101057.41;;;15.57;100.00
35910;BME280;22004;49.120;-0.200;2022-10-16T11:48:31;101056.44;;;15.58;100.00
35910;BME280;22004;49.120;-0.200;2022-10-16T11:51:08;101057.06;;;15.49;100.00
35910;BME280;22004;49.120;-0.200;2022-10-16T11:54:05;101051.34;;;15.41;100.00
35910;BME280;22004;49.120;-0.200;2022-10-16T11:56:37;101060.44;;;15.38;100.00
35910;BME280;22004;49.120;-0.200;2022-10-16T12:01:45;101052.34;;;15.40;100.00
35910;BME280;22004;49.120;-0.200;2022-10-16T12:04:26;101051.47;;;15.39;100.00
35910;BME280;22004;49.120;-0.200;2022-10-16T12:07:04;101048.69;;;15.41;100.00
35910;BME280;22004;49.120;-0.200;2022-10-16T12:09:34;101042.88;;;15.34;100.00
35910;BME280;22004;49.120;-0.200;2022-10-16T12:12:00;101049.09;;;15.35;100.00
35910;BME280;22004;49.120;-0.200;2022-10-16T12:16:59;101051.59;;;15.23;100.00
35910;BME280;22004;49.120;-0.200;2022-10-16T12:19:27;101049.63;;;15.12;100.00
35910;BME280;22004;49.120;-0.200;2022-10-16T12:21:56;101049.16;;;15.06;100.00
35910;BME280;22004;49.120;-0.200;2022-10-16T12:24:35;101055.19;;;14.95;100.00
35910;BME280;22004;49.120;-0.200;2022-10-16T12:27:01;101055.69;;;14.87;100.00
35910;BME280;22004;49.120;-0.200;2022-10-16T12:29:41;101051.31;;;14.72;100.00
35910;BME280;22004;49.120;-0.200;2022-10-16T12:32:30;101050.47;;;14.71;100.00
35910;BME280;22004;49.120;-0.200;2022-10-16T12:34:57;101036.72;;;14.63;100.00
35910;BME280;22004;49.120;-0.200;2022-10-16T12:37:28;101040.88;;;14.53;100.00
35910;BME280;22004;49.120;-0.200;2022-10-16T12:39:56;101043.44;;;14.54;100.00
35910;BME280;22004;49.120;-0.200;2022-10-16T12:44:51;101030.31;;;14.51;100.00
35910;BME280;22004;49.120;-0.200;2022-10-16T12:47:36;101025.75;;;14.53;100.00
35910;BME280;22004;49.120;-0.200;2022-10-16T12:50:02;101021.06;;;14.57;100.00
35910;BME280;22004;49.120;-0.200;2022-10-16T12:55:00;101006.97;;;14.55;100.00
35910;BME280;22004;49.120;-0.200;2022-10-16T13:00:44;101034.22;;;14.45;100.00
35910;BME280;22004;49.120;-0.200;2022-10-16T13:14:40;101002.25;;;14.58;100.00
35910;BME280;22004;49.120;-0.200;2022-10-16T13:28:01;100983.69;;;14.71;100.00
35910;BME280;22004;49.120;-0.200;2022-10-16T13:30:40;100972.25;;;14.69;100.00
35910;BME280;22004;49.120;-0.200;2022-10-16T13:35:50;100988.38;;;14.68;100.00
35910;BME280;22004;49.120;-0.200;2022-10-16T13:38:18;100974.63;;;14.59;100.00
35910;BME280;22004;49.120;-0.200;2022-10-16T13:40:58;100974.16;;;14.67;100.00
35910;BME280;22004;49.120;-0.200;2022-10-16T13:43:31;100967.00;;;14.68;100.00
35910;BME280;22004;49.120;-0.200;2022-10-16T13:48:27;100955.72;;;14.62;100.00
35910;BME280;22004;49.120;-0.200;2022-10-16T13:53:38;100972.34;;;14.68;100.00
35910;BME280;22004;49.120;-0.200;2022-10-16T13:56:06;100964.88;;;14.58;100.00
35910;BME280;22004;49.120;-0.200;2022-10-16T13:58:32;100945.34;;;14.58;100.00
35910;BME280;22004;49.120;-0.200;2022-10-16T14:01:03;100949.75;;;14.59;100.00
35910;BME280;22004;49.120;-0.200;2022-10-16T14:03:30;100950.59;;;14.59;100.00
35910;BME280;22004;49.120;-0.200;2022-10-16T14:06:02;100952.31;;;14.60;100.00
35910;BME280;22004;49.120;-0.200;2022-10-16T14:08:29;100940.75;;;14.60;100.00
35910;BME280;22004;49.120;-0.200;2022-10-16T14:10:58;100947.19;;;14.57;100.00
35910;BME280;22004;49.120;-0.200;2022-10-16T14:13:34;100934.47;;;14.61;100.00
35910;BME280;22004;49.120;-0.200;2022-10-16T14:16:05;100934.47;;;14.61;100.00
35910;BME280;22004;49.120;-0.200;2022-10-16T14:18:32;100927.84;;;14.68;100.00
35910;BME280;22004;49.120;-0.200;2022-10-16T14:21:05;100933.25;;;14.67;100.00
35910;BME280;22004;49.120;-0.200;2022-10-16T14:23:37;100934.69;;;14.72;100.00
35910;BME280;22004;49.120;-0.200;2022-10-16T14:28:35;100940.66;;;14.76;100.00
35910;BME280;22004;49.120;-0.200;2022-10-16T14:31:02;100943.44;;;14.74;100.00
35910;BME280;22004;49.120;-0.200;2022-10-16T14:36:11;100938.88;;;14.62;100.00
35910;BME280;22004;49.120;-0.200;2022-10-16T14:38:41;100928.28;;;14.60;100.00
35910;BME280;22004;49.120;-0.200;2022-10-16T14:41:07;100940.00;;;14.58;100.00
35910;BME280;22004;49.120;-0.200;2022-10-16T14:43:42;100946.19;;;14.58;100.00
35910;BME280;22004;49.120;-0.200;2022-10-16T14:46:16;100950.78;;;14.56;100.00